createdAt,value
2022-11-05T00:00:15.703Z,98808.91
2022-11-05T00:03:01.453Z,98819.41
2022-11-05T00:05:47.072Z,98826.19
2022-11-05T00:08:32.617Z,98816.97
2022-11-05T00:10:59.740Z,98819.56
2022-11-05T00:13:45.433Z,98811.16
2022-11-05T00:16:30.911Z,98821.00
2022-11-05T00:19:06.853Z,98820.19
2022-11-05T00:21:54.029Z,98823.28
2022-11-05T00:24:40.152Z,98825.06
2022-11-05T00:27:08.145Z,98830.38
2022-11-05T00:29:36.002Z,98835.53
2022-11-05T00:32:03.099Z,98837.63
2022-11-05T00:34:30.219Z,98826.34
2022-11-05T00:36:57.130Z,98831.34
2022-11-05T00:39:24.253Z,98826.50
2022-11-05T00:42:09.863Z,98832.00
2022-11-05T00:44:55.418Z,98830.50
2022-11-05T00:47:40.840Z,98827.75
2022-11-05T00:50:08.154Z,98830.00
2022-11-05T00:52:53.709Z,98825.63
2022-11-05T00:55:20.989Z,98823.34
2022-11-05T00:57:47.924Z,98834.97
2022-11-05T01:00:15.307Z,98824.00
2022-11-05T01:02:42.441Z,98819.13
2022-11-05T01:05:09.588Z,98827.34
2022-11-05T01:07:36.586Z,98825.59
2022-11-05T01:10:03.948Z,98831.88
2022-11-05T01:12:32.187Z,98816.00
2022-11-05T01:14:59.779Z,98832.31
2022-11-05T01:17:26.679Z,98817.91
2022-11-05T01:19:53.617Z,98822.91
2022-11-05T01:22:20.495Z,98822.41
2022-11-05T01:24:47.485Z,98821.28
2022-11-05T01:27:14.506Z,98825.78
2022-11-05T01:29:42.340Z,98824.78
2022-11-05T01:32:09.971Z,98818.31
2022-11-05T01:34:37.289Z,98805.38
2022-11-05T01:37:04.130Z,98815.72
2022-11-05T01:39:31.513Z,98795.34
2022-11-05T01:41:58.905Z,98806.19
2022-11-05T01:45:01.871Z,98812.47
2022-11-05T01:47:47.709Z,98806.00
2022-11-05T01:50:44.770Z,98800.19
2022-11-05T01:53:30.194Z,98803.94
2022-11-05T01:56:03.236Z,98797.31
2022-11-05T01:58:36.778Z,98789.53
2022-11-05T02:01:04.030Z,98792.78
2022-11-05T02:03:31.618Z,98785.50
2022-11-05T02:06:00.901Z,98795.22
2022-11-05T02:08:42.652Z,98788.25
2022-11-05T02:11:09.759Z,98796.78
2022-11-05T02:13:36.987Z,98770.75
2022-11-05T02:16:23.366Z,98795.16
2022-11-05T02:19:23.322Z,98699.81
2022-11-05T02:22:17.906Z,98798.47
2022-11-05T02:24:44.737Z,98805.59
2022-11-05T02:27:33.135Z,98805.91
2022-11-05T02:30:05.959Z,98797.66
2022-11-05T02:32:51.776Z,98805.28
2022-11-05T02:35:30.895Z,98803.16
2022-11-05T02:38:09.043Z,98796.22
2022-11-05T02:40:44.849Z,98808.19
2022-11-05T02:43:16.543Z,98809.84
2022-11-05T02:45:51.040Z,98803.00
2022-11-05T02:48:18.106Z,98798.66
2022-11-05T02:51:15.573Z,98790.75
2022-11-05T02:53:49.331Z,98797.03
2022-11-05T02:56:39.657Z,98789.31
2022-11-05T02:59:06.848Z,98784.44
2022-11-05T03:01:36.030Z,98788.31
2022-11-05T03:04:06.927Z,98787.81
2022-11-05T03:06:33.789Z,98787.94
2022-11-05T03:09:26.444Z,98779.19
2022-11-05T03:12:23.988Z,98790.84
2022-11-05T03:15:09.142Z,98795.50
2022-11-05T03:17:52.968Z,98811.63
2022-11-05T03:20:25.238Z,98806.47
2022-11-05T03:22:58.620Z,98769.66
2022-11-05T03:25:29.332Z,98797.75
2022-11-05T03:28:05.562Z,98788.22
2022-11-05T03:30:35.649Z,98785.34
2022-11-05T03:33:16.222Z,98783.75
2022-11-05T03:35:48.099Z,98779.50
2022-11-05T03:38:22.030Z,98796.81
2022-11-05T03:40:54.457Z,98799.81
2022-11-05T03:43:25.012Z,98784.28
2022-11-05T03:46:24.671Z,98793.31
2022-11-05T03:48:55.646Z,98791.09
2022-11-05T03:51:41.984Z,98800.44
2022-11-05T03:54:10.824Z,98773.28
2022-11-05T03:56:52.395Z,98785.34
2022-11-05T03:59:20.719Z,98785.66
2022-11-05T04:01:48.447Z,98784.84
2022-11-05T04:04:15.806Z,98787.09
2022-11-05T04:07:01.149Z,98788.03
2022-11-05T04:09:46.878Z,98803.13
2022-11-05T04:12:32.248Z,98791.69
2022-11-05T04:14:59.365Z,98777.91
2022-11-05T04:17:26.410Z,98781.53
2022-11-05T04:20:25.584Z,98780.53
2022-11-05T04:23:31.070Z,98786.31
2022-11-05T04:25:58.014Z,98782.69
2022-11-05T04:28:44.822Z,98783.09
2022-11-05T04:31:12.114Z,98792.41
2022-11-05T04:33:38.904Z,98790.00
2022-11-05T04:36:06.293Z,98793.53
2022-11-05T04:38:33.146Z,98791.81
2022-11-05T04:41:14.328Z,98790.19
2022-11-05T04:43:41.461Z,98797.59
2022-11-05T04:46:08.606Z,98801.75
2022-11-05T04:48:35.777Z,98805.00
2022-11-05T04:51:02.839Z,98807.72
2022-11-05T04:53:29.830Z,98793.53
2022-11-05T04:56:12.862Z,98810.03
2022-11-05T04:58:41.693Z,98814.28
2022-11-05T05:01:14.501Z,98803.53
2022-11-05T05:03:41.798Z,98798.72
2022-11-05T05:06:10.340Z,98808.94
2022-11-05T05:08:38.536Z,98810.94
2022-11-05T05:11:09.350Z,98819.34
2022-11-05T05:13:36.833Z,98807.28
2022-11-05T05:16:09.179Z,98821.13
2022-11-05T05:18:36.421Z,98817.47
2022-11-05T05:21:21.736Z,98823.81
2022-11-05T05:23:48.948Z,98822.41
2022-11-05T05:26:16.852Z,98815.31
2022-11-05T05:28:44.154Z,98813.75
2022-11-05T05:31:11.592Z,98828.31
2022-11-05T05:33:39.022Z,98825.09
2022-11-05T05:36:11.055Z,98823.03
2022-11-05T05:38:39.077Z,98828.25
2022-11-05T05:41:06.278Z,98829.69
2022-11-05T05:43:34.439Z,98832.13
2022-11-05T05:46:06.562Z,98833.41
2022-11-05T05:48:34.396Z,98826.81
2022-11-05T05:51:02.671Z,98838.66
2022-11-05T05:53:30.766Z,98848.34
2022-11-05T05:55:58.995Z,98867.28
2022-11-05T05:58:30.746Z,98864.88
2022-11-05T06:01:05.148Z,98851.97
2022-11-05T06:03:32.386Z,98850.88
2022-11-05T06:06:10.777Z,98860.63
2022-11-05T06:08:37.709Z,98862.91
2022-11-05T06:11:05.596Z,98867.50
2022-11-05T06:13:33.608Z,98863.31
2022-11-05T06:16:07.052Z,98866.72
2022-11-05T06:18:34.512Z,98869.66
2022-11-05T06:21:03.653Z,98873.03
2022-11-05T06:23:35.578Z,98871.13
2022-11-05T06:26:10.684Z,98873.56
2022-11-05T06:28:38.188Z,98875.50
2022-11-05T06:31:05.914Z,98871.00
2022-11-05T06:33:32.911Z,98874.38
2022-11-05T06:36:01.804Z,98880.41
2022-11-05T06:38:31.532Z,98875.19
2022-11-05T06:40:59.534Z,98871.63
2022-11-05T06:43:28.637Z,98866.00
2022-11-05T06:45:56.644Z,98883.81
2022-11-05T06:48:25.569Z,98880.91
2022-11-05T06:50:52.806Z,98875.03
2022-11-05T06:53:20.087Z,98877.13
2022-11-05T06:55:50.437Z,98868.72
2022-11-05T06:58:17.473Z,98869.66
2022-11-05T07:00:45.153Z,98864.59
2022-11-05T07:03:13.113Z,98855.50
2022-11-05T07:05:43.836Z,98870.66
2022-11-05T07:08:10.998Z,98862.69
2022-11-05T07:10:38.229Z,98857.75
2022-11-05T07:13:08.407Z,98854.44
2022-11-05T07:15:38.852Z,98857.16
2022-11-05T07:18:07.588Z,98853.53
2022-11-05T07:20:35.253Z,98849.78
2022-11-05T07:23:07.170Z,98853.09
2022-11-05T07:25:34.771Z,98859.34
2022-11-05T07:28:02.726Z,98855.06
2022-11-05T07:30:30.692Z,98833.88
2022-11-05T07:32:57.870Z,98852.78
2022-11-05T07:35:25.734Z,98846.13
2022-11-05T07:37:54.168Z,98838.25
2022-11-05T07:40:22.432Z,98848.72
2022-11-05T07:42:52.236Z,98848.78
2022-11-05T07:45:19.738Z,98848.28
2022-11-05T07:47:55.586Z,98834.94
2022-11-05T07:50:25.192Z,98810.22
2022-11-05T07:52:52.763Z,98840.44
2022-11-05T07:55:21.068Z,98828.13
2022-11-05T07:57:50.343Z,98837.03
2022-11-05T08:00:22.431Z,98836.13
2022-11-05T08:03:07.166Z,98839.34
2022-11-05T08:05:39.429Z,98824.34
2022-11-05T08:08:14.153Z,98824.09
2022-11-05T08:10:41.590Z,98824.66
2022-11-05T08:13:09.973Z,98836.69
2022-11-05T08:15:39.421Z,98814.06
2022-11-05T08:18:17.680Z,98825.41
2022-11-05T08:20:45.829Z,98813.56
2022-11-05T08:23:13.062Z,98816.19
2022-11-05T08:25:41.471Z,98817.44
2022-11-05T08:28:12.933Z,98812.88
2022-11-05T08:30:40.652Z,98824.53
2022-11-05T08:33:11.211Z,98817.19
2022-11-05T08:35:39.338Z,98816.47
2022-11-05T08:38:36.049Z,98815.28
2022-11-05T08:41:03.201Z,98809.34
2022-11-05T08:43:30.229Z,98809.59
2022-11-05T08:45:57.440Z,98809.91
2022-11-05T08:48:24.543Z,98802.75
2022-11-05T08:50:51.778Z,98799.53
2022-11-05T08:53:19.036Z,98797.00
2022-11-05T08:55:50.187Z,98809.09
2022-11-05T08:58:17.987Z,98804.47
2022-11-05T09:00:47.851Z,98811.34
2022-11-05T09:03:16.017Z,98803.97
2022-11-05T09:05:43.696Z,98802.09
2022-11-05T09:08:13.780Z,98800.19
2022-11-05T09:10:42.114Z,98798.84
2022-11-05T09:13:16.661Z,98798.22
2022-11-05T09:15:45.820Z,98798.03
2022-11-05T09:18:14.465Z,98800.47
2022-11-05T09:20:42.579Z,98795.72
2022-11-05T09:23:11.851Z,98802.22
2022-11-05T09:25:39.556Z,98812.66
2022-11-05T09:28:18.847Z,98799.25
2022-11-05T09:30:50.806Z,98781.44
2022-11-05T09:33:20.527Z,98778.41
2022-11-05T09:35:47.940Z,98786.22
2022-11-05T09:38:15.247Z,98793.53
2022-11-05T09:41:13.270Z,98785.28
2022-11-05T09:43:52.045Z,98783.41
2022-11-05T09:46:33.816Z,98797.47
2022-11-05T09:49:06.198Z,98782.81
2022-11-05T09:51:36.162Z,98781.06
2022-11-05T09:54:04.632Z,98773.50
2022-11-05T09:56:37.069Z,98778.00
2022-11-05T09:59:07.521Z,98774.88
2022-11-05T10:01:38.033Z,98772.59
2022-11-05T10:04:16.431Z,98763.94
2022-11-05T10:06:54.735Z,98769.13
2022-11-05T10:09:31.623Z,98754.56
2022-11-05T10:12:07.830Z,98734.97
2022-11-05T10:14:40.949Z,98739.06
2022-11-05T10:17:14.983Z,98768.78
2022-11-05T10:19:50.046Z,98760.50
2022-11-05T10:22:19.441Z,98761.34
2022-11-05T10:24:49.581Z,98757.81
2022-11-05T10:30:15.694Z,98747.91
2022-11-05T10:32:44.892Z,98743.97
2022-11-05T10:35:22.803Z,98744.84
2022-11-05T10:37:51.436Z,98749.75
2022-11-05T10:40:36.451Z,98742.25
2022-11-05T10:43:06.668Z,98744.69
2022-11-05T10:45:52.587Z,98745.53
2022-11-05T10:48:44.070Z,98736.44
2022-11-05T10:51:11.735Z,98731.66
2022-11-05T10:53:39.914Z,98734.84
2022-11-05T10:56:37.975Z,98730.88
2022-11-05T10:59:18.952Z,98737.28
2022-11-05T11:01:47.266Z,98702.91
2022-11-05T11:04:24.163Z,98715.75
2022-11-05T11:06:56.425Z,98706.19
2022-11-05T11:09:30.724Z,98722.22
2022-11-05T11:12:20.656Z,98708.66
2022-11-05T11:15:14.977Z,98713.88
2022-11-05T11:17:42.828Z,98702.31
2022-11-05T11:20:30.105Z,98709.50
2022-11-05T11:23:05.260Z,98700.69
2022-11-05T11:26:00.748Z,98691.09
2022-11-05T11:28:33.847Z,98694.31
2022-11-05T11:31:13.694Z,98694.31
2022-11-05T11:33:44.118Z,98690.72
2022-11-05T11:36:13.034Z,98690.72
2022-11-05T11:38:41.382Z,98686.31
2022-11-05T11:41:12.145Z,98702.72
2022-11-05T11:43:42.338Z,98682.31
2022-11-05T11:46:20.125Z,98686.31
2022-11-05T11:49:03.892Z,98687.09
2022-11-05T11:51:49.882Z,98692.66
2022-11-05T11:54:28.620Z,98689.06
2022-11-05T11:56:58.628Z,98683.81
2022-11-05T11:59:53.991Z,98680.25
2022-11-05T12:02:43.091Z,98671.84
2022-11-05T12:05:28.966Z,98676.22
2022-11-05T12:08:04.964Z,98668.19
2022-11-05T12:10:48.353Z,98671.78
2022-11-05T12:13:54.044Z,98677.38
2022-11-05T12:16:45.745Z,98668.16
2022-11-05T12:19:22.082Z,98692.53
2022-11-05T12:22:04.758Z,98672.53
2022-11-05T12:24:40.955Z,98686.94
2022-11-05T12:27:38.245Z,98670.53
2022-11-05T12:30:12.443Z,98668.09
2022-11-05T12:33:10.204Z,98673.66
2022-11-05T12:35:54.815Z,98675.63
2022-11-05T12:38:42.967Z,98666.81
2022-11-05T12:41:21.862Z,98673.94
2022-11-05T12:44:13.738Z,98670.34
2022-11-05T12:47:07.504Z,98669.81
2022-11-05T12:49:51.997Z,98676.16
2022-11-05T12:52:43.663Z,98676.13
2022-11-05T12:55:24.196Z,98680.13
2022-11-05T12:58:00.271Z,98667.72
2022-11-05T13:00:29.530Z,98666.84
2022-11-05T13:03:12.193Z,98673.25
2022-11-05T13:06:05.426Z,98683.28
2022-11-05T13:08:49.814Z,98682.47
2022-11-05T13:11:26.412Z,98682.88
2022-11-05T13:14:27.053Z,98684.03
2022-11-05T13:17:05.483Z,98688.09
2022-11-05T13:19:38.710Z,98698.09
2022-11-05T13:22:17.802Z,98696.88
2022-11-05T13:24:53.271Z,98636.69
2022-11-05T13:27:41.040Z,98704.16
2022-11-05T13:30:22.759Z,98705.88
2022-11-05T13:32:53.336Z,98705.13
2022-11-05T13:35:27.203Z,98722.00
2022-11-05T13:38:20.382Z,98711.56
2022-11-05T13:41:14.903Z,98716.44
2022-11-05T13:43:44.819Z,98710.50
2022-11-05T13:46:22.764Z,98717.34
2022-11-05T13:49:18.864Z,98726.97
2022-11-05T13:51:50.069Z,98726.22
2022-11-05T13:54:26.083Z,98730.22
2022-11-05T13:57:17.978Z,98741.03
2022-11-05T14:00:24.622Z,98730.69
2022-11-05T14:02:58.043Z,98734.31
2022-11-05T14:05:36.683Z,98742.25
2022-11-05T14:08:21.183Z,98739.47
2022-11-05T14:11:15.696Z,98747.84
2022-11-05T14:13:45.205Z,98743.84
2022-11-05T14:16:40.835Z,98750.66
2022-11-05T14:19:20.277Z,98751.00
2022-11-05T14:21:57.652Z,98758.16
2022-11-05T14:24:40.567Z,98747.28
2022-11-05T14:27:08.646Z,98760.44
2022-11-05T14:29:45.114Z,98764.34
2022-11-05T14:32:20.942Z,98765.53
2022-11-05T14:35:07.868Z,98764.28
2022-11-05T14:38:00.292Z,98758.56
2022-11-05T14:40:42.402Z,98765.31
2022-11-05T14:43:22.213Z,98775.94
2022-11-05T14:46:02.929Z,98773.50
2022-11-05T14:48:46.907Z,98770.22
2022-11-05T14:51:38.907Z,98772.53
2022-11-05T14:54:27.206Z,98773.25
2022-11-05T14:57:00.043Z,98774.69
2022-11-05T14:59:31.823Z,98776.19
2022-11-05T15:02:17.437Z,98788.78
2022-11-05T15:04:48.333Z,98767.94
2022-11-05T15:07:24.511Z,98794.19
2022-11-05T15:09:54.528Z,98795.72
2022-11-05T15:12:40.289Z,98798.38
2022-11-05T15:15:21.404Z,98797.06
2022-11-05T15:17:58.383Z,98803.72
2022-11-05T15:20:39.628Z,98808.75
2022-11-05T15:23:09.777Z,98797.84
2022-11-05T15:25:58.568Z,98801.41
2022-11-05T15:28:35.634Z,98804.94
2022-11-05T15:31:31.229Z,98797.25
2022-11-05T15:34:17.088Z,98813.53
2022-11-05T15:36:48.494Z,98818.56
2022-11-05T15:39:41.540Z,98818.31
2022-11-05T15:42:25.474Z,98818.94
2022-11-05T15:44:55.163Z,98810.84
2022-11-05T15:47:28.586Z,98815.50
2022-11-05T15:50:02.109Z,98808.16
2022-11-05T15:52:42.446Z,98824.81
2022-11-05T15:55:12.251Z,98823.16
2022-11-05T15:57:50.448Z,98828.66
2022-11-05T16:00:24.594Z,98827.38
2022-11-05T16:03:24.388Z,98833.41
2022-11-05T16:05:51.649Z,98835.34
2022-11-05T16:08:21.861Z,98825.22
2022-11-05T16:10:52.434Z,98843.50
2022-11-05T16:13:33.222Z,98849.34
2022-11-05T16:16:03.539Z,98845.63
2022-11-05T16:18:36.069Z,98845.63
2022-11-05T16:21:14.380Z,98856.75
2022-11-05T16:23:43.126Z,98856.69
2022-11-05T16:29:23.186Z,98854.63
2022-11-05T16:31:52.976Z,98870.09
2022-11-05T16:34:46.818Z,98858.47
2022-11-05T16:37:16.262Z,98867.47
2022-11-05T16:39:43.133Z,98864.91
2022-11-05T16:42:23.022Z,98873.56
2022-11-05T16:44:51.467Z,98865.88
2022-11-05T16:47:19.851Z,98870.72
2022-11-05T16:49:50.303Z,98870.91
2022-11-05T16:52:17.453Z,98872.19
2022-11-05T16:54:44.664Z,98849.16
2022-11-05T16:57:37.951Z,98879.03
2022-11-05T17:00:06.576Z,98871.72
2022-11-05T17:02:33.671Z,98873.59
2022-11-05T17:05:01.027Z,98867.88
2022-11-05T17:07:28.100Z,98877.34
2022-11-05T17:09:56.082Z,98885.94
2022-11-05T17:12:23.075Z,98880.06
2022-11-05T17:14:50.102Z,98888.19
2022-11-05T17:17:17.081Z,98883.72
2022-11-05T17:19:44.877Z,98888.28
2022-11-05T17:22:11.775Z,98889.41
2022-11-05T17:24:39.085Z,98895.31
2022-11-05T17:27:06.267Z,98889.59
2022-11-05T17:29:33.433Z,98878.56
2022-11-05T17:32:00.618Z,98888.84
2022-11-05T17:34:27.682Z,98888.75
2022-11-05T17:36:54.939Z,98895.28
2022-11-05T17:39:24.855Z,98883.09
2022-11-05T17:41:55.188Z,98884.25
2022-11-05T17:44:22.175Z,98876.91
2022-11-05T17:46:49.899Z,98880.28
2022-11-05T17:49:16.910Z,98869.34
2022-11-05T17:51:43.920Z,98881.81
2022-11-05T17:54:11.121Z,98872.81
2022-11-05T17:56:44.479Z,98891.28
2022-11-05T17:59:11.998Z,98884.38
2022-11-05T18:01:43.458Z,98893.28
2022-11-05T18:04:11.097Z,98892.06
2022-11-05T18:06:41.671Z,98906.69
2022-11-05T18:09:09.900Z,98916.28
2022-11-05T18:11:37.967Z,98913.75
2022-11-05T18:14:05.173Z,98923.41
2022-11-05T18:16:32.956Z,98905.78
2022-11-05T18:19:01.151Z,98921.09
2022-11-05T18:21:28.362Z,98930.31
2022-11-05T18:23:55.464Z,98919.00
2022-11-05T18:26:22.352Z,98922.72
2022-11-05T18:28:49.539Z,98923.16
2022-11-05T18:31:20.613Z,98917.72
2022-11-05T18:33:51.515Z,98926.66
2022-11-05T18:36:24.522Z,98927.91
2022-11-05T18:38:52.352Z,98922.84
2022-11-05T18:41:20.695Z,98917.53
2022-11-05T18:43:47.792Z,98918.91
2022-11-05T18:46:43.161Z,98928.91
2022-11-05T18:49:05.713Z,98930.41
2022-11-05T18:51:33.083Z,98915.66
2022-11-05T18:54:00.663Z,98922.00
2022-11-05T18:56:27.683Z,98934.53
2022-11-05T18:59:14.859Z,98926.59
2022-11-05T19:01:42.566Z,98940.03
2022-11-05T19:04:10.127Z,98943.81
2022-11-05T19:06:37.443Z,98926.13
2022-11-05T19:09:06.144Z,98938.31
2022-11-05T19:11:33.690Z,98949.13
2022-11-05T19:14:05.699Z,98950.28
2022-11-05T19:16:33.134Z,98957.47
2022-11-05T19:19:02.340Z,98955.25
2022-11-05T19:21:30.282Z,98953.69
2022-11-05T19:24:01.336Z,98956.31
2022-11-05T19:26:29.349Z,98963.03
2022-11-05T19:29:00.650Z,98961.47
2022-11-05T19:31:31.332Z,98957.09
2022-11-05T19:33:58.782Z,98960.13
2022-11-05T19:36:26.278Z,98964.97
2022-11-05T19:39:02.339Z,98964.50
2022-11-05T19:41:29.400Z,98964.03
2022-11-05T19:43:58.159Z,98962.13
2022-11-05T19:46:25.450Z,98969.13
2022-11-05T19:48:52.913Z,98959.28
2022-11-05T19:51:24.438Z,98972.88
2022-11-05T19:53:52.907Z,98981.19
2022-11-05T19:56:22.825Z,98984.16
2022-11-05T19:58:50.483Z,98988.91
2022-11-05T20:01:18.667Z,98993.75
2022-11-05T20:03:46.430Z,98990.72
2022-11-05T20:06:16.301Z,98983.28
2022-11-05T20:09:07.093Z,98997.38
2022-11-05T20:11:32.215Z,98990.28
2022-11-05T20:13:59.518Z,98996.75
2022-11-05T20:16:30.066Z,98999.53
2022-11-05T20:18:57.949Z,99006.00
2022-11-05T20:21:25.068Z,99009.75
2022-11-05T20:23:51.994Z,99000.84
2022-11-05T20:26:18.925Z,98995.84
2022-11-05T20:28:46.361Z,99008.47
2022-11-05T20:31:16.626Z,99007.34
2022-11-05T20:33:45.082Z,99016.91
2022-11-05T20:36:20.870Z,99017.56
2022-11-05T20:38:49.147Z,99022.91
2022-11-05T20:41:19.585Z,99021.63
2022-11-05T20:43:48.159Z,99017.59
2022-11-05T20:46:17.314Z,99022.13
2022-11-05T20:48:45.417Z,99021.97
2022-11-05T20:51:15.635Z,99026.31
2022-11-05T20:53:43.609Z,99025.38
2022-11-05T20:56:23.403Z,99021.81
2022-11-05T20:58:50.928Z,99023.75
2022-11-05T21:01:19.204Z,99014.03
2022-11-05T21:03:47.988Z,99028.78
2022-11-05T21:06:15.798Z,99027.66
2022-11-05T21:08:43.609Z,99020.03
2022-11-05T21:11:11.344Z,99029.75
2022-11-05T21:13:38.726Z,99006.09
2022-11-05T21:16:07.725Z,99033.81
2022-11-05T21:21:20.152Z,99038.50
2022-11-05T21:23:47.559Z,99027.81
2022-11-05T21:26:15.375Z,99024.25
2022-11-05T21:28:42.832Z,99034.13
2022-11-05T21:31:10.436Z,99028.28
2022-11-05T21:33:38.140Z,99036.53
2022-11-05T21:36:11.370Z,99035.09
2022-11-05T21:38:38.770Z,99033.31
2022-11-05T21:41:06.512Z,99032.97
2022-11-05T21:43:33.744Z,99029.59
2022-11-05T21:46:02.453Z,99044.31
2022-11-05T21:48:30.409Z,99038.00
2022-11-05T21:51:15.945Z,99049.50
2022-11-05T21:54:01.597Z,99054.66
2022-11-05T21:57:18.814Z,99049.34
2022-11-05T21:59:48.915Z,99057.91
2022-11-05T22:02:19.634Z,99057.25
2022-11-05T22:04:49.522Z,99045.09
2022-11-05T22:07:20.149Z,99055.78
2022-11-05T22:09:47.337Z,99052.56
2022-11-05T22:12:14.701Z,99061.94
2022-11-05T22:14:42.264Z,99059.19
2022-11-05T22:17:10.847Z,99057.56
2022-11-05T22:19:38.004Z,99066.31
2022-11-05T22:22:06.958Z,99058.06
2022-11-05T22:24:35.070Z,99059.03
2022-11-05T22:27:05.037Z,99064.22
2022-11-05T22:29:32.605Z,99066.16
2022-11-05T22:31:59.959Z,99060.16
2022-11-05T22:34:26.987Z,99064.19
2022-11-05T22:36:54.191Z,99056.56
2022-11-05T22:39:21.768Z,99062.91
2022-11-05T22:41:49.301Z,99059.97
2022-11-05T22:44:17.385Z,99060.44
2022-11-05T22:46:44.554Z,99055.91
2022-11-05T22:49:12.293Z,99044.09
2022-11-05T22:51:39.852Z,99058.34
2022-11-05T22:54:07.910Z,99048.16
2022-11-05T22:56:38.775Z,99055.28
2022-11-05T22:59:07.112Z,99041.00
2022-11-05T23:01:34.240Z,99062.06
2022-11-05T23:04:01.494Z,99052.00
2022-11-05T23:06:51.736Z,99051.69
2022-11-05T23:09:43.738Z,99063.34
2022-11-05T23:12:28.718Z,99064.47
2022-11-05T23:14:58.043Z,99057.19
2022-11-05T23:17:44.238Z,99052.00
2022-11-05T23:20:33.321Z,99067.88
2022-11-05T23:23:19.162Z,99064.25
2022-11-05T23:25:46.335Z,99075.25
2022-11-05T23:28:14.148Z,99075.84
2022-11-05T23:31:03.241Z,99069.69
2022-11-05T23:33:34.064Z,99063.78
2022-11-05T23:36:19.858Z,99068.28
2022-11-05T23:38:47.183Z,99066.94
2022-11-05T23:41:32.561Z,99061.25
2022-11-05T23:44:18.248Z,99062.06
2022-11-05T23:47:03.465Z,99054.44
2022-11-05T23:49:30.903Z,99070.63
2022-11-05T23:51:57.776Z,99077.31
2022-11-05T23:54:24.801Z,99075.00
2022-11-05T23:56:51.671Z,99080.91
2022-11-05T23:59:18.943Z,99071.75
